Date,TemperatureHighF,TemperatureAvgF,TemperatureLowF,DewpointHighF,DewpointAvgF,DewpointLowF,HumidityHigh,HumidityAvg,HumidityLow,PressureMaxIn,PressureMinIn,WindSpeedMaxMPH,WindSpeedAvgMPH,GustSpeedMaxMPH,PrecipitationSumIn
2013-3-1,30.2,25.0,13.4,27.0,20.2,12.0,95,82,74,30.26,30.10,12,4,18,0.00
2013-3-2,29.6,17.3,8.1,17.0,11.4,6.0,96,79,53,30.28,30.19,7,1,12,0.00
2013-3-3,35.7,20.3,3.0,16.0,10.2,1.0,93,69,35,30.19,30.07,5,1,8,0.00
2013-3-4,32.6,27.5,23.4,27.0,20.9,14.0,89,76,65,30.09,29.94,15,6,21,0.00
2013-3-5,31.9,28.9,26.7,31.0,28.1,25.0,99,97,91,30.14,29.86,9,3,15,0.00
2013-3-6,30.5,26.9,18.2,26.0,23.8,17.0,94,88,81,30.34,30.14,12,4,17,0.00
2013-3-7,36.5,22.7,6.9,28.0,19.3,6.0,97,87,69,30.43,30.34,7,1,9,0.09
2013-3-8,39.3,30.5,18.3,31.0,26.2,17.0,96,84,71,30.43,30.22,12,3,15,0.03
2013-3-9,41.2,37.8,33.8,41.0,35.9,30.0,99,93,84,30.21,29.74,14,4,21,0.71
2013-3-10,43.7,40.3,35.5,44.0,40.3,36.0,100,100,98,29.74,29.51,13,3,24,0.78
2013-3-11,35.5,33.2,30.3,36.0,32.1,28.0,100,96,88,29.82,29.57,13,4,19,0.02
2013-3-12,33.5,28.4,24.5,30.0,24.4,20.0,96,85,74,30.08,29.82,17,7,25,0.00
2013-3-13,34.3,26.8,21.1,21.0,17.6,13.0,89,70,47,30.34,30.08,12,5,19,0.00
2013-3-14,40.4,28.2,19.7,34.0,25.2,18.0,96,88,70,30.34,30.06,7,1,12,0.02
2013-3-15,38.9,32.1,24.7,36.0,31.3,25.0,100,97,89,30.06,29.74,9,2,14,0.02
2013-3-16,34.0,31.1,27.8,34.0,27.6,22.0,98,87,77,30.15,29.75,10,4,14,0.00
2013-3-17,33.7,28.3,21.9,26.0,21.8,14.0,87,76,66,30.23,29.95,12,5,18,0.00
2013-3-18,33.9,27.5,18.2,33.0,24.7,13.0,97,89,78,29.94,29.61,22,7,32,0.00
2013-3-19,28.3,20.8,12.7,18.0,12.7,8.0,84,71,59,30.15,29.83,23,10,28,0.00
2013-3-20,24.5,16.2,9.7,13.0,7.9,3.0,81,70,60,30.18,30.08,18,7,27,0.00
2013-3-21,29.9,18.5,5.7,15.0,10.8,3.0,93,73,54,30.12,30.03,8,1,10,0.00
2013-3-22,36.0,24.7,9.6,22.0,16.5,8.0,95,73,48,30.09,30.02,6,1,10,0.01
2013-3-23,40.5,30.3,19.0,26.0,22.4,18.0,96,74,45,30.12,30.02,9,1,11,0.00
2013-3-24,32.9,30.9,28.5,30.0,28.1,24.0,98,89,72,30.04,29.77,14,5,21,0.00
2013-3-25,36.2,31.9,28.3,28.0,25.5,22.0,93,77,68,30.13,29.83,16,5,19,0.01
2013-3-26,41.6,34.3,26.7,28.0,25.3,23.0,87,70,55,30.27,30.13,10,3,14,0.00
2013-3-27,44.8,35.7,27.3,29.0,25.9,22.0,91,70,45,30.33,30.27,8,1,12,0.00
2013-3-28,49.9,36.5,21.4,32.0,26.9,21.0,97,71,43,30.36,30.26,8,1,10,0.00
2013-3-29,55.3,42.8,28.9,35.0,31.3,27.0,93,66,43,30.30,30.18,5,1,7,0.00
2013-3-30,54.4,46.6,37.3,46.0,38.8,29.0,97,75,64,30.18,29.81,11,4,18,0.00
2013-3-31,47.3,41.0,32.7,44.0,35.6,27.0,100,82,63,29.94,29.76,16,6,27,0.00